Time;durP1;ratioP1;P1;durP2;ratioP2;P2;SDS_P1;SDS_P2;PMS_P1;PMS_P2;Temp;Humidity;BMP_temperature;BMP_pressure;BME280_temperature;BME280_humidity;BME280_pressure;Samples;Min_cycle;Max_cycle;Signal;HPM_P1;HPM_P2
2023/10/16 00:02:22;;;;;;;0.80;0.80;;;7.60;99.90;;;;;;5000430;28;20497;-74
2023/10/16 00:04:49;;;;;;;1.27;0.90;;;7.60;99.90;;;;;;4984237;28;20485;-73
2023/10/16 00:07:22;;;;;;;5.70;1.57;;;7.60;99.90;;;;;;4995136;28;20466;-74
2023/10/16 00:09:53;;;;;;;4.00;1.53;;;7.50;99.90;;;;;;4987600;28;20556;-72
2023/10/16 00:12:19;;;;;;;1.73;1.17;;;7.50;99.90;;;;;;4989445;28;20457;-73
2023/10/16 00:14:48;;;;;;;1.43;1.17;;;7.50;99.90;;;;;;4994792;28;20479;-74
2023/10/16 00:17:15;;;;;;;1.30;1.20;;;7.50;99.90;;;;;;4980119;28;20511;-74
2023/10/16 00:19:44;;;;;;;0.70;0.70;;;7.40;99.90;;;;;;4991409;28;20482;-74
2023/10/16 00:22:16;;;;;;;2.50;1.63;;;7.10;99.90;;;;;;4999723;28;20459;-74
2023/10/16 00:24:46;;;;;;;1.43;1.20;;;6.90;99.90;;;;;;4982000;28;20472;-74
2023/10/16 00:27:15;;;;;;;1.27;1.00;;;6.60;99.90;;;;;;4988410;28;20468;-71
2023/10/16 00:29:44;;;;;;;1.90;1.30;;;6.60;99.90;;;;;;5002218;28;20987;-74
2023/10/16 00:32:16;;;;;;;1.77;1.13;;;6.70;99.90;;;;;;5001196;28;20456;-74
2023/10/16 00:34:42;;;;;;;2.63;1.20;;;6.80;99.90;;;;;;4995170;28;20474;-74
2023/10/16 00:37:10;;;;;;;1.00;0.90;;;7.00;99.90;;;;;;4997463;28;20499;-74
2023/10/16 00:39:37;;;;;;;1.53;1.30;;;7.10;99.90;;;;;;4971872;28;20271;-75
2023/10/16 00:42:08;;;;;;;1.50;1.40;;;6.80;99.90;;;;;;4992591;28;20558;-74
2023/10/16 00:44:33;;;;;;;1.00;0.70;;;6.80;99.90;;;;;;5001178;28;20456;-74
2023/10/16 00:47:04;;;;;;;0.90;0.90;;;6.90;99.90;;;;;;4981105;28;20454;-74
2023/10/16 00:49:35;;;;;;;1.17;1.07;;;7.00;99.90;;;;;;4985623;28;20456;-73
2023/10/16 00:52:06;;;;;;;1.17;1.07;;;6.90;99.90;;;;;;4992277;28;20547;-74
2023/10/16 00:54:39;;;;;;;1.13;1.00;;;6.80;99.90;;;;;;5005236;28;20491;-74
2023/10/16 00:57:07;;;;;;;1.40;0.80;;;6.50;99.90;;;;;;4994308;28;20462;-74
2023/10/16 00:59:35;;;;;;;1.27;1.17;;;6.50;99.90;;;;;;4999582;28;20476;-74
2023/10/16 01:02:07;;;;;;;1.10;0.97;;;6.60;99.90;;;;;;4995671;28;20461;-75
2023/10/16 01:04:33;;;;;;;1.33;1.10;;;6.80;99.90;;;;;;5000596;28;20467;-73
2023/10/16 01:07:00;;;;;;;1.93;1.37;;;6.80;99.90;;;;;;4996935;28;20461;-74
2023/10/16 01:09:26;;;;;;;1.40;1.30;;;6.90;99.90;;;;;;4995492;28;21057;-74
2023/10/16 01:11:54;;;;;;;1.67;1.40;;;6.80;99.90;;;;;;4987274;28;20833;-74
2023/10/16 01:14:20;;;;;;;1.67;1.57;;;6.50;99.90;;;;;;4988496;28;20454;-73
2023/10/16 01:16:46;;;;;;;1.37;1.27;;;6.50;99.90;;;;;;4986290;28;20524;-74
2023/10/16 01:19:14;;;;;;;1.50;1.30;;;6.70;99.90;;;;;;4996858;28;20491;-74
2023/10/16 01:21:40;;;;;;;2.93;1.53;;;6.80;99.90;;;;;;5006144;28;20525;-75
2023/10/16 01:24:12;;;;;;;1.17;1.07;;;6.80;99.90;;;;;;4998438;28;20483;-71
2023/10/16 01:26:40;;;;;;;1.37;0.97;;;6.90;99.90;;;;;;4995706;28;20262;-73
2023/10/16 01:29:07;;;;;;;1.03;0.90;;;7.00;99.90;;;;;;4993048;28;20453;-74
2023/10/16 01:31:34;;;;;;;1.20;1.10;;;7.00;99.90;;;;;;5015233;28;20856;-73
2023/10/16 01:33:59;;;;;;;1.00;0.90;;;7.00;99.90;;;;;;4980906;28;20992;-75
2023/10/16 01:36:26;;;;;;;1.40;1.10;;;7.00;99.90;;;;;;4993547;28;20483;-75
2023/10/16 01:38:51;;;;;;;1.43;1.07;;;7.00;99.90;;;;;;5002154;28;20445;-74
2023/10/16 01:41:18;;;;;;;2.17;1.20;;;6.90;99.90;;;;;;5007407;28;20535;-73
2023/10/16 01:43:44;;;;;;;1.27;1.13;;;6.90;99.90;;;;;;4993870;28;20661;-74
2023/10/16 01:46:15;;;;;;;1.80;1.37;;;6.90;99.90;;;;;;5007163;28;20468;-72
2023/10/16 01:48:42;;;;;;;1.73;1.30;;;6.80;99.90;;;;;;4993285;28;20515;-74
2023/10/16 01:51:09;;;;;;;1.83;1.50;;;6.70;99.90;;;;;;4996742;28;20453;-74
2023/10/16 01:53:39;;;;;;;1.50;1.40;;;6.70;99.90;;;;;;4994865;28;20446;-74
2023/10/16 01:56:12;;;;;;;2.17;1.50;;;6.80;99.90;;;;;;4997203;28;20442;-72
2023/10/16 01:58:41;;;;;;;1.27;1.17;;;6.70;99.90;;;;;;5003701;28;20842;-74
2023/10/16 02:01:08;;;;;;;1.00;1.00;;;6.70;99.90;;;;;;4994154;28;20473;-73
2023/10/16 02:03:34;;;;;;;1.93;1.53;;;6.80;99.90;;;;;;4997413;28;20464;-73
2023/10/16 02:06:00;;;;;;;1.20;1.10;;;6.80;99.90;;;;;;4999799;28;20466;-73
2023/10/16 02:08:26;;;;;;;1.80;1.40;;;6.80;99.90;;;;;;5000898;28;20272;-73
2023/10/16 02:10:52;;;;;;;1.00;1.00;;;6.80;99.90;;;;;;5021241;28;20529;-73
2023/10/16 02:13:18;;;;;;;1.10;1.00;;;6.80;99.90;;;;;;5030195;28;20276;-73
2023/10/16 02:15:43;;;;;;;0.90;0.87;;;6.70;99.90;;;;;;5024019;28;20223;-74
2023/10/16 02:18:18;;;;;;;1.93;1.30;;;6.70;99.90;;;;;;4991063;28;20681;-74
2023/10/16 02:20:45;;;;;;;0.90;0.90;;;6.70;99.90;;;;;;4994239;28;20246;-74
2023/10/16 02:23:12;;;;;;;1.47;1.17;;;6.70;99.90;;;;;;4990890;28;20458;-75
2023/10/16 02:25:37;;;;;;;0.97;0.97;;;6.70;99.90;;;;;;4991682;28;20462;-73
2023/10/16 02:28:13;;;;;;;1.10;1.00;;;6.70;99.90;;;;;;4972441;28;20461;-73
2023/10/16 02:30:41;;;;;;;1.30;1.20;;;6.70;99.90;;;;;;4989515;28;20214;-74
2023/10/16 02:35:53;;;;;;;1.80;1.30;;;6.40;99.90;;;;;;4989260;28;20468;-73
2023/10/16 02:38:27;;;;;;;1.30;1.20;;;6.40;99.90;;;;;;4989077;28;20517;-73
2023/10/16 02:41:00;;;;;;;2.40;1.27;;;6.40;99.90;;;;;;4989537;28;20465;-74
2023/10/16 02:43:26;;;;;;;3.47;1.50;;;6.30;99.90;;;;;;5009867;28;20475;-73
2023/10/16 02:45:52;;;;;;;1.50;1.40;;;6.30;99.90;;;;;;4997237;28;20503;-74
2023/10/16 02:48:19;;;;;;;1.90;1.70;;;6.30;99.90;;;;;;5008969;28;20898;-74
2023/10/16 02:50:54;;;;;;;2.33;1.57;;;6.40;99.90;;;;;;5008195;28;20222;-73
2023/10/16 02:53:25;;;;;;;2.60;1.77;;;6.40;99.90;;;;;;5003900;28;20471;-74
2023/10/16 02:55:58;;;;;;;2.73;1.73;;;6.40;99.90;;;;;;4990588;28;20465;-74
2023/10/16 02:58:28;;;;;;;3.93;1.70;;;6.40;99.90;;;;;;4989241;28;20566;-73
2023/10/16 03:00:59;;;;;;;2.10;1.37;;;6.40;99.90;;;;;;5012317;28;20513;-74
2023/10/16 03:03:26;;;;;;;1.50;1.40;;;6.30;99.90;;;;;;5006927;28;20466;-74
2023/10/16 03:05:56;;;;;;;1.47;1.10;;;6.40;99.90;;;;;;5012260;28;20468;-73
2023/10/16 03:08:29;;;;;;;1.30;1.17;;;6.40;99.90;;;;;;5005437;28;20533;-74
2023/10/16 03:10:59;;;;;;;1.87;1.40;;;6.40;99.90;;;;;;4987922;28;20799;-73
2023/10/16 03:13:25;;;;;;;2.53;1.30;;;6.40;99.90;;;;;;5001125;28;20464;-73
2023/10/16 03:16:05;;;;;;;2.20;1.40;;;6.40;99.90;;;;;;4999921;28;20466;-73
2023/10/16 03:18:34;;;;;;;1.50;1.40;;;6.30;99.90;;;;;;4986674;28;20990;-72
2023/10/16 03:21:27;;;;;;;2.60;1.87;;;6.30;99.90;;;;;;4996791;28;20551;-72
2023/10/16 03:23:50;;;;;;;2.23;1.50;;;6.30;99.90;;;;;;5003665;28;20466;-73
2023/10/16 03:26:25;;;;;;;2.63;1.40;;;6.30;99.90;;;;;;4999902;28;20532;-74
2023/10/16 03:29:00;;;;;;;1.57;1.47;;;6.30;99.90;;;;;;4995675;28;20234;-72
2023/10/16 03:31:29;;;;;;;1.70;1.10;;;6.20;99.90;;;;;;4993417;28;20540;-73
2023/10/16 03:33:55;;;;;;;2.80;1.67;;;6.10;99.90;;;;;;5007452;28;20974;-74
2023/10/16 03:36:22;;;;;;;1.90;1.57;;;6.10;99.90;;;;;;4993306;28;21003;-73
2023/10/16 03:38:51;;;;;;;1.47;1.30;;;6.10;99.90;;;;;;4995435;28;20465;-75
2023/10/16 03:44:13;;;;;;;1.83;1.23;;;6.00;99.90;;;;;;4993925;28;20545;-74
2023/10/16 03:46:40;;;;;;;2.13;1.50;;;6.00;99.90;;;;;;4994422;28;20515;-74
2023/10/16 03:49:06;;;;;;;2.27;1.20;;;5.90;99.90;;;;;;4989313;28;20457;-74
2023/10/16 03:51:32;;;;;;;1.70;1.37;;;5.80;99.90;;;;;;4988155;28;20529;-74
2023/10/16 03:53:58;;;;;;;1.50;1.20;;;5.90;99.90;;;;;;5003194;28;20556;-73
2023/10/16 03:56:26;;;;;;;1.83;1.33;;;6.00;99.90;;;;;;4995863;28;20305;-74
2023/10/16 03:58:55;;;;;;;1.47;1.33;;;6.00;99.90;;;;;;4993011;28;20250;-73
2023/10/16 04:01:23;;;;;;;1.47;1.37;;;5.80;99.90;;;;;;4993422;28;20464;-73
2023/10/16 04:03:56;;;;;;;5.53;1.60;;;5.60;99.90;;;;;;4996648;28;20473;-74
2023/10/16 04:06:22;;;;;;;5.40;1.23;;;5.50;99.90;;;;;;5008589;28;20488;-73
2023/10/16 04:08:49;;;;;;;2.70;1.40;;;5.70;99.90;;;;;;5009335;28;20449;-73
2023/10/16 04:11:23;;;;;;;2.03;1.40;;;5.90;99.90;;;;;;4994158;28;20464;-74
2023/10/16 04:13:48;;;;;;;1.10;1.00;;;6.00;99.90;;;;;;5002944;28;20467;-73
2023/10/16 04:16:31;;;;;;;1.23;1.10;;;6.00;99.90;;;;;;4998167;28;20444;-73
2023/10/16 04:21:44;;;;;;;1.20;1.10;;;6.00;99.90;;;;;;5002579;28;20472;-73
2023/10/16 04:24:44;;;;;;;1.97;1.80;;;5.90;99.90;;;;;;4986981;28;20975;-73
2023/10/16 04:29:45;;;;;;;3.53;2.70;;;5.90;99.90;;;;;;4995495;28;20459;-73
2023/10/16 04:34:57;;;;;;;2.20;1.97;;;5.90;99.90;;;;;;5011206;28;20467;-72
2023/10/16 04:53:08;;;;;;;4.20;2.60;;;5.80;99.90;;;;;;4987115;28;20457;-72
2023/10/16 05:06:27;;;;;;;6.40;1.97;;;5.70;99.90;;;;;;5004572;28;20465;-73
2023/10/16 05:17:21;;;;;;;;;;;;;;;;;;;;;
2023/10/16 06:14:12;;;;;;;3.90;1.90;;;5.40;99.90;;;;;;4984994;28;20828;-74
2023/10/16 06:16:53;;;;;;;4.20;2.80;;;5.40;99.90;;;;;;5002229;28;20518;-73
2023/10/16 06:19:19;;;;;;;5.23;2.20;;;5.30;99.90;;;;;;4990308;28;20460;-74
2023/10/16 06:21:49;;;;;;;2.53;2.33;;;5.40;99.90;;;;;;4988390;28;20458;-72
2023/10/16 06:24:25;;;;;;;4.50;3.53;;;5.40;99.90;;;;;;4990562;28;20445;-73
2023/10/16 06:26:59;;;;;;;7.00;3.60;;;5.40;99.90;;;;;;4991234;28;20485;-72
2023/10/16 06:29:34;;;;;;;9.70;4.13;;;5.40;99.90;;;;;;4988543;28;20457;-74
2023/10/16 06:32:20;;;;;;;5.90;2.90;;;5.40;99.90;;;;;;4995153;28;20473;-73
2023/10/16 06:34:47;;;;;;;3.13;2.30;;;5.40;99.90;;;;;;4986992;28;20873;-74
2023/10/16 06:37:21;;;;;;;10.50;7.03;;;5.40;99.90;;;;;;4990623;28;20481;-72
2023/10/16 06:39:48;;;;;;;10.73;7.83;;;5.30;99.90;;;;;;4989787;28;20553;-73
2023/10/16 06:42:20;;;;;;;8.30;6.00;;;5.30;99.90;;;;;;4992562;28;20466;-72
2023/10/16 06:44:53;;;;;;;9.33;5.07;;;5.40;99.90;;;;;;4986615;28;20465;-72
2023/10/16 06:47:35;;;;;;;5.73;4.83;;;5.40;99.90;;;;;;4985329;28;20446;-72
2023/10/16 06:50:32;;;;;;;6.87;4.20;;;5.40;99.90;;;;;;5004519;28;20500;-71
2023/10/16 06:52:55;;;;;;;5.67;3.30;;;5.40;99.90;;;;;;4987599;28;20457;-74
2023/10/16 06:55:21;;;;;;;5.20;3.40;;;5.50;99.90;;;;;;4973556;28;20485;-72
2023/10/16 06:57:47;;;;;;;5.27;3.23;;;5.50;99.90;;;;;;4986896;28;20469;-73
2023/10/16 07:00:38;;;;;;;6.13;3.47;;;5.40;99.90;;;;;;4986635;28;20469;-73
2023/10/16 07:03:09;;;;;;;2.93;2.73;;;5.50;99.90;;;;;;5001892;28;20464;-74
2023/10/16 07:05:44;;;;;;;5.90;2.70;;;5.50;99.90;;;;;;4985797;28;20461;-74
2023/10/16 07:08:17;;;;;;;6.50;2.80;;;5.50;99.90;;;;;;4986131;28;20457;-73
2023/10/16 07:10:51;;;;;;;5.93;4.33;;;5.50;99.90;;;;;;4988342;28;20449;-74
2023/10/16 07:13:27;;;;;;;3.33;2.33;;;5.60;99.90;;;;;;4982819;28;20832;-73
2023/10/16 07:15:59;;;;;;;2.87;2.67;;;5.60;99.90;;;;;;4987669;28;20453;-73
2023/10/16 07:18:25;;;;;;;3.63;3.20;;;5.60;99.90;;;;;;4975706;28;20444;-73
2023/10/16 07:23:34;;;;;;;5.23;2.93;;;5.60;99.90;;;;;;4988647;28;20501;-73
2023/10/16 07:26:02;;;;;;;3.00;2.57;;;5.70;99.90;;;;;;4991882;28;20458;-71
2023/10/16 07:28:29;;;;;;;3.63;2.83;;;5.70;99.90;;;;;;4994424;28;20466;-73
2023/10/16 07:30:59;;;;;;;3.57;2.20;;;5.80;99.90;;;;;;4988005;28;21007;-74
2023/10/16 07:33:26;;;;;;;2.87;2.40;;;5.80;99.90;;;;;;4983382;28;20457;-73
2023/10/16 07:35:54;;;;;;;4.77;1.83;;;5.90;99.90;;;;;;4988619;28;20474;-72
2023/10/16 07:38:25;;;;;;;4.80;2.40;;;5.90;99.90;;;;;;4999105;28;20453;-74
2023/10/16 07:40:58;;;;;;;2.73;2.37;;;6.00;99.90;;;;;;5006436;28;20480;-71
2023/10/16 07:43:29;;;;;;;7.17;3.13;;;6.00;99.90;;;;;;4987834;28;20549;-73
2023/10/16 07:48:34;;;;;;;3.90;2.70;;;6.00;99.90;;;;;;4994618;28;20463;-73
2023/10/16 07:51:01;;;;;;;2.50;2.30;;;6.00;99.90;;;;;;5000152;28;20516;-73
2023/10/16 07:53:28;;;;;;;4.20;2.57;;;6.10;99.90;;;;;;5006087;28;20475;-73
2023/10/16 07:55:55;;;;;;;4.60;2.50;;;6.10;99.90;;;;;;4990477;28;20633;-73
2023/10/16 07:58:24;;;;;;;6.00;4.30;;;6.10;99.90;;;;;;5007735;28;20460;-73
2023/10/16 08:03:36;;;;;;;4.93;3.20;;;6.30;99.90;;;;;;5008980;28;20536;-73
2023/10/16 08:06:05;;;;;;;5.90;3.47;;;6.30;99.90;;;;;;5002574;28;20462;-73
2023/10/16 08:08:36;;;;;;;4.03;3.73;;;6.40;99.90;;;;;;5007196;28;20556;-73
2023/10/16 08:11:13;;;;;;;4.93;3.60;;;6.50;99.90;;;;;;5005930;28;20532;-74
2023/10/16 08:13:49;;;;;;;4.17;3.63;;;6.50;99.90;;;;;;5004943;28;20460;-73
2023/10/16 08:16:19;;;;;;;6.90;3.43;;;6.50;99.90;;;;;;5017073;28;20503;-73
2023/10/16 08:18:48;;;;;;;6.23;3.53;;;6.60;99.90;;;;;;4995026;28;20485;-73
2023/10/16 08:21:24;;;;;;;6.43;3.20;;;6.70;99.90;;;;;;4987257;28;20478;-73
2023/10/16 08:23:51;;;;;;;6.83;3.63;;;6.70;99.90;;;;;;4977129;28;20456;-74
2023/10/16 08:26:29;;;;;;;5.40;3.60;;;6.80;99.90;;;;;;4993817;28;20965;-73
2023/10/16 08:28:55;;;;;;;6.90;3.57;;;6.80;99.90;;;;;;4990822;28;20480;-73
2023/10/16 08:31:24;;;;;;;5.13;3.40;;;7.00;99.90;;;;;;4986092;28;20532;-74
2023/10/16 08:33:59;;;;;;;5.80;3.70;;;7.10;99.90;;;;;;4982410;28;20840;-73
2023/10/16 08:36:26;;;;;;;5.00;3.70;;;7.20;99.90;;;;;;4981022;28;20449;-74
2023/10/16 08:38:53;;;;;;;6.27;3.53;;;7.30;99.90;;;;;;5007439;28;20467;-74
2023/10/16 08:41:30;;;;;;;3.37;2.70;;;7.40;99.90;;;;;;5005967;28;20518;-71
2023/10/16 08:44:05;;;;;;;4.70;3.80;;;7.50;99.90;;;;;;5008839;28;20530;-74
2023/10/16 08:46:31;;;;;;;7.07;3.77;;;7.60;99.90;;;;;;4999465;28;20464;-73
2023/10/16 08:49:00;;;;;;;6.23;4.43;;;7.60;99.90;;;;;;4995401;28;20474;-73
2023/10/16 08:51:28;;;;;;;9.90;4.57;;;7.70;99.90;;;;;;4986761;28;20481;-73
2023/10/16 08:53:59;;;;;;;5.13;3.77;;;7.70;99.90;;;;;;4985747;28;20526;-73
2023/10/16 08:56:25;;;;;;;7.17;4.37;;;7.70;99.90;;;;;;4977853;28;20461;-74
2023/10/16 08:58:55;;;;;;;6.77;4.93;;;7.80;99.90;;;;;;4986573;28;20528;-73
2023/10/16 09:01:23;;;;;;;8.47;5.60;;;7.90;99.90;;;;;;4993435;28;20462;-74
2023/10/16 09:03:51;;;;;;;8.93;5.40;;;8.00;99.90;;;;;;4996505;28;21015;-74
2023/10/16 09:06:23;;;;;;;8.43;4.83;;;8.10;99.90;;;;;;5002015;28;20473;-74
2023/10/16 09:08:54;;;;;;;13.23;4.70;;;8.20;99.90;;;;;;4991580;28;20530;-72
2023/10/16 09:11:21;;;;;;;6.87;5.00;;;8.30;99.90;;;;;;5012377;28;20465;-70
2023/10/16 09:13:51;;;;;;;9.30;6.20;;;8.40;99.90;;;;;;4993309;28;20461;-74
2023/10/16 09:16:23;;;;;;;9.83;5.70;;;8.40;99.90;;;;;;5006088;28;20449;-74
2023/10/16 09:18:53;;;;;;;8.33;4.70;;;8.50;99.90;;;;;;4979934;28;20467;-74
2023/10/16 09:21:27;;;;;;;11.07;5.27;;;8.50;99.90;;;;;;4975662;28;20450;-72
2023/10/16 09:23:58;;;;;;;6.10;4.70;;;8.60;99.90;;;;;;4986936;28;20469;-73
2023/10/16 09:26:28;;;;;;;9.60;5.70;;;8.70;99.90;;;;;;4984764;28;20528;-73
2023/10/16 09:29:15;;;;;;;8.20;5.53;;;8.70;99.90;;;;;;5007261;28;20477;-73
2023/10/16 09:31:45;;;;;;;18.37;7.40;;;8.60;99.90;;;;;;4995808;28;20547;-75
2023/10/16 09:34:17;;;;;;;11.50;7.37;;;8.70;99.90;;;;;;5001602;28;20476;-74
2023/10/16 09:39:34;;;;;;;13.10;7.73;;;9.00;99.90;;;;;;4992820;28;20614;-72
2023/10/16 09:42:15;;;;;;;13.47;7.00;;;9.10;99.90;;;;;;4981157;28;20469;-73
2023/10/16 09:44:45;;;;;;;14.00;7.53;;;9.10;99.90;;;;;;4980845;28;20453;-74
2023/10/16 09:47:26;;;;;;;12.97;7.30;;;9.20;99.90;;;;;;4996846;28;20476;-74
2023/10/16 09:49:59;;;;;;;10.97;6.50;;;9.20;99.90;;;;;;4986543;28;20459;-71
2023/10/16 09:52:30;;;;;;;12.40;6.10;;;9.70;99.90;;;;;;4996889;28;20976;-73
2023/10/16 09:54:59;;;;;;;15.27;7.93;;;9.80;99.90;;;;;;4995974;28;20460;-74
2023/10/16 09:57:30;;;;;;;9.20;6.60;;;9.80;99.90;;;;;;4991722;28;20462;-72
2023/10/16 10:00:05;;;;;;;7.90;6.07;;;9.90;99.90;;;;;;4982375;28;20573;-74
2023/10/16 10:02:39;;;;;;;10.20;6.67;;;10.10;99.90;;;;;;4984575;28;20465;-73
2023/10/16 10:05:09;;;;;;;10.77;6.27;;;10.20;99.90;;;;;;4985214;28;20458;-73
2023/10/16 10:07:49;;;;;;;8.50;6.17;;;10.30;99.90;;;;;;4997932;28;20467;-73
2023/10/16 10:13:08;;;;;;;11.17;6.07;;;10.40;99.90;;;;;;4992831;28;20537;-75
2023/10/16 10:15:44;;;;;;;9.23;6.00;;;10.40;99.90;;;;;;4982012;28;20460;-73
2023/10/16 10:20:59;;;;;;;8.80;5.07;;;10.70;99.90;;;;;;4983829;28;20476;-74
2023/10/16 10:23:25;;;;;;;12.70;5.23;;;10.50;99.90;;;;;;5000597;28;20444;-72
2023/10/16 10:25:53;;;;;;;8.17;5.93;;;10.60;99.90;;;;;;4975779;28;20594;-73
2023/10/16 10:28:22;;;;;;;6.60;4.53;;;10.50;99.90;;;;;;4984293;28;20461;-74
2023/10/16 10:30:49;;;;;;;8.97;4.67;;;10.40;99.90;;;;;;4995251;28;20471;-74
2023/10/16 10:33:51;;;;;;;8.80;4.20;;;10.30;99.90;;;;;;4968531;28;20564;-73
2023/10/16 10:36:29;;;;;;;4.37;3.67;;;10.70;99.90;;;;;;4984660;28;20475;-72
2023/10/16 10:39:20;;;;;;;13.00;4.30;;;10.90;99.90;;;;;;4980201;28;21051;-73
2023/10/16 10:42:03;;;;;;;5.40;4.13;;;11.20;99.90;;;;;;4998697;28;20500;-75
2023/10/16 10:44:29;;;;;;;5.10;3.90;;;11.40;99.90;;;;;;4993260;28;20461;-74
2023/10/16 10:46:55;;;;;;;4.63;4.00;;;11.50;99.90;;;;;;4999340;28;21047;-73
2023/10/16 10:49:33;;;;;;;6.57;4.20;;;11.90;99.90;;;;;;4994674;28;20457;-74
2023/10/16 10:52:06;;;;;;;5.67;4.30;;;12.00;99.90;;;;;;5002025;28;20453;-74
2023/10/16 10:54:42;;;;;;;7.33;4.20;;;11.80;99.90;;;;;;5004204;28;20466;-74
2023/10/16 10:57:18;;;;;;;5.67;3.67;;;11.40;99.90;;;;;;5002520;28;20465;-74
2023/10/16 11:00:22;;;;;;;8.50;2.97;;;11.30;99.90;;;;;;4998687;28;20542;-73
2023/10/16 11:02:52;;;;;;;2.77;2.40;;;11.50;99.90;;;;;;4989971;28;20458;-73
2023/10/16 11:05:24;;;;;;;2.27;2.07;;;12.00;99.90;;;;;;4984234;28;20612;-74
2023/10/16 11:10:41;;;;;;;4.67;1.90;;;12.60;99.90;;;;;;5011722;28;20508;-74
2023/10/16 11:13:08;;;;;;;3.47;2.10;;;12.60;99.90;;;;;;4979464;28;20541;-72
2023/10/16 11:15:35;;;;;;;6.13;2.87;;;12.30;99.90;;;;;;4982955;28;20829;-74
2023/10/16 11:18:10;;;;;;;3.50;1.90;;;12.50;99.90;;;;;;4975867;28;20496;-73
2023/10/16 11:20:36;;;;;;;7.30;2.70;;;12.40;99.90;;;;;;4981067;28;20474;-72
2023/10/16 11:23:12;;;;;;;2.63;2.20;;;12.10;99.90;;;;;;4981875;28;20529;-75
2023/10/16 11:25:45;;;;;;;8.43;2.23;;;11.90;99.90;;;;;;5009018;28;20520;-74
2023/10/16 11:28:17;;;;;;;2.60;2.37;;;11.90;99.90;;;;;;4977257;28;20496;-75
2023/10/16 11:30:53;;;;;;;2.10;1.90;;;12.10;99.90;;;;;;4981703;28;20469;-73
2023/10/16 11:33:26;;;;;;;5.93;2.33;;;12.00;99.90;;;;;;4980302;28;20461;-74
2023/10/16 11:35:54;;;;;;;3.17;2.10;;;12.10;99.90;;;;;;4980316;28;20466;-72
2023/10/16 11:38:29;;;;;;;3.10;2.30;;;11.90;99.90;;;;;;4982148;28;20480;-72
2023/10/16 11:41:05;;;;;;;4.43;1.97;;;11.90;99.90;;;;;;4979788;28;20616;-74
2023/10/16 11:43:34;;;;;;;4.93;2.83;;;12.10;99.90;;;;;;4982676;28;21118;-73
2023/10/16 11:46:05;;;;;;;3.87;1.90;;;12.10;99.90;;;;;;4983823;28;20533;-73
2023/10/16 11:48:35;;;;;;;5.80;1.57;;;12.00;99.90;;;;;;4972885;28;20469;-75
2023/10/16 11:51:18;;;;;;;1.53;1.43;;;12.20;99.90;;;;;;4980904;28;20462;-74
2023/10/16 11:53:44;;;;;;;3.13;1.57;;;12.30;99.90;;;;;;4977293;28;20490;-74
2023/10/16 11:56:12;;;;;;;2.17;1.30;;;12.30;99.90;;;;;;4995472;28;20509;-74
2023/10/16 11:58:42;;;;;;;1.30;1.20;;;12.30;99.90;;;;;;4975912;28;20242;-75
2023/10/16 12:01:11;;;;;;;3.87;1.93;;;12.40;99.90;;;;;;4977541;28;20510;-75
2023/10/16 12:03:38;;;;;;;3.23;1.20;;;12.50;99.90;;;;;;4984835;28;20461;-75
2023/10/16 12:06:07;;;;;;;3.20;2.20;;;12.50;99.90;;;;;;4978913;28;20458;-75
2023/10/16 12:08:33;;;;;;;2.10;1.70;;;12.50;99.90;;;;;;4982397;28;20466;-73
2023/10/16 12:11:01;;;;;;;2.80;1.70;;;12.20;99.90;;;;;;4984067;28;20513;-73
2023/10/16 12:13:30;;;;;;;8.33;2.33;;;12.10;99.90;;;;;;4983849;28;20760;-75
2023/10/16 12:15:57;;;;;;;1.33;1.10;;;12.20;99.90;;;;;;4979658;28;20494;-75
2023/10/16 12:18:26;;;;;;;2.77;1.30;;;12.40;99.90;;;;;;4985620;28;20526;-73
2023/10/16 12:20:53;;;;;;;1.73;1.30;;;12.40;99.90;;;;;;4993674;28;20462;-73
2023/10/16 12:23:20;;;;;;;3.10;1.37;;;12.50;99.90;;;;;;4995149;28;20457;-74
2023/10/16 12:25:47;;;;;;;2.27;1.43;;;12.60;99.90;;;;;;4976305;28;20469;-73
2023/10/16 12:28:12;;;;;;;1.90;1.50;;;12.50;99.90;;;;;;4967693;28;20474;-74
2023/10/16 12:30:38;;;;;;;3.17;1.40;;;12.40;99.90;;;;;;4975808;28;20537;-74
2023/10/16 12:33:07;;;;;;;2.73;1.53;;;12.40;99.90;;;;;;4967354;28;20234;-73
2023/10/16 12:35:34;;;;;;;1.13;1.03;;;12.50;99.90;;;;;;4977665;28;20640;-73
2023/10/16 12:38:04;;;;;;;3.00;1.40;;;12.70;99.90;;;;;;4970810;28;20470;-73
2023/10/16 12:40:34;;;;;;;1.40;1.30;;;12.80;99.90;;;;;;4980555;28;20524;-73
2023/10/16 12:43:00;;;;;;;4.03;1.60;;;12.50;99.90;;;;;;4972119;28;20466;-73
2023/10/16 12:45:27;;;;;;;1.20;1.10;;;12.40;99.90;;;;;;4974201;28;20462;-73
2023/10/16 12:47:54;;;;;;;1.87;1.47;;;12.40;99.90;;;;;;4980385;28;20494;-74
2023/10/16 12:50:24;;;;;;;1.70;1.40;;;12.30;99.90;;;;;;4976974;28;20528;-72
2023/10/16 12:52:51;;;;;;;2.10;1.30;;;12.20;99.80;;;;;;4984734;28;20549;-75
2023/10/16 12:55:19;;;;;;;1.60;1.50;;;12.20;99.90;;;;;;4985199;28;20640;-76
2023/10/16 12:57:45;;;;;;;2.13;1.27;;;12.30;99.90;;;;;;4990900;28;20469;-74
2023/10/16 13:00:16;;;;;;;3.27;1.70;;;12.40;99.70;;;;;;4993925;28;20563;-76
2023/10/16 13:02:43;;;;;;;2.87;1.50;;;12.60;99.70;;;;;;4994091;28;20456;-74
2023/10/16 13:05:13;;;;;;;3.20;2.00;;;12.60;99.00;;;;;;4986205;28;20473;-74
2023/10/16 13:07:43;;;;;;;3.83;1.70;;;12.70;99.60;;;;;;4963577;28;20461;-74
2023/10/16 13:10:26;;;;;;;2.50;1.73;;;12.80;98.70;;;;;;4972901;28;20812;-73
2023/10/16 13:12:52;;;;;;;3.50;1.80;;;12.70;99.60;;;;;;4974669;28;20469;-75
2023/10/16 13:15:36;;;;;;;1.97;1.33;;;12.70;98.50;;;;;;4987742;28;20465;-74
2023/10/16 13:18:01;;;;;;;2.93;2.30;;;12.80;99.00;;;;;;4985644;28;20457;-73
2023/10/16 13:20:28;;;;;;;2.30;2.00;;;12.70;98.70;;;;;;4982506;28;20469;-73
2023/10/16 13:22:55;;;;;;;2.93;1.93;;;12.70;99.00;;;;;;4978873;28;20310;-73
2023/10/16 13:25:27;;;;;;;4.27;1.97;;;12.70;99.00;;;;;;4982102;28;20460;-76
2023/10/16 13:27:55;;;;;;;4.93;2.20;;;12.90;99.10;;;;;;5005522;28;20836;-72
2023/10/16 13:30:22;;;;;;;7.20;2.23;;;13.00;99.40;;;;;;4985263;28;20472;-72
2023/10/16 13:32:48;;;;;;;5.80;2.53;;;12.80;99.80;;;;;;5000348;28;20469;-74
2023/10/16 13:35:21;;;;;;;5.70;2.83;;;12.90;99.90;;;;;;5005545;28;20524;-74
2023/10/16 13:37:50;;;;;;;4.50;3.00;;;12.90;99.60;;;;;;4998912;28;20461;-73
2023/10/16 13:40:20;;;;;;;4.57;2.50;;;12.60;99.90;;;;;;5006249;28;20476;-75
2023/10/16 13:42:51;;;;;;;4.27;2.80;;;12.70;99.50;;;;;;4986935;28;20533;-73
2023/10/16 13:45:18;;;;;;;4.33;2.30;;;12.70;99.60;;;;;;4999766;28;20449;-74
2023/10/16 13:47:44;;;;;;;3.80;2.60;;;12.40;99.40;;;;;;5006250;28;20445;-73
2023/10/16 13:50:18;;;;;;;2.50;1.53;;;12.30;99.90;;;;;;5003855;28;20986;-70
2023/10/16 13:52:44;;;;;;;5.10;2.50;;;12.30;99.80;;;;;;5006683;28;20453;-73
2023/10/16 13:55:14;;;;;;;8.00;2.97;;;12.40;99.60;;;;;;4990468;28;20504;-73
2023/10/16 13:57:42;;;;;;;5.13;2.80;;;12.30;99.50;;;;;;4986194;28;20498;-73
2023/10/16 14:00:48;;;;;;;2.97;2.30;;;12.20;99.30;;;;;;4993530;28;20470;-73
2023/10/16 14:03:10;;;;;;;3.30;1.77;;;12.20;99.90;;;;;;5001295;28;20516;-73
2023/10/16 14:05:44;;;;;;;2.40;1.63;;;12.20;99.80;;;;;;4999701;28;20523;-72
2023/10/16 14:08:10;;;;;;;1.90;1.80;;;12.10;99.50;;;;;;5004425;28;20468;-73
2023/10/16 14:10:45;;;;;;;6.77;1.37;;;12.20;99.60;;;;;;5003633;28;20587;-72
2023/10/16 14:13:19;;;;;;;5.90;1.73;;;12.20;99.00;;;;;;4996332;28;20539;-72
2023/10/16 14:15:51;;;;;;;2.80;1.60;;;12.20;99.70;;;;;;5000131;28;20492;-73
2023/10/16 14:18:21;;;;;;;3.83;1.40;;;12.10;99.50;;;;;;5007753;28;20495;-71
2023/10/16 14:20:49;;;;;;;2.53;1.77;;;12.20;99.60;;;;;;5007878;28;20849;-72
2023/10/16 14:23:17;;;;;;;2.43;1.90;;;12.20;99.30;;;;;;5006301;28;21055;-73
2023/10/16 14:25:57;;;;;;;1.97;1.37;;;12.10;99.10;;;;;;4988680;28;20600;-72
2023/10/16 14:28:40;;;;;;;8.30;2.20;;;12.00;99.50;;;;;;4978831;28;20485;-72
2023/10/16 14:31:09;;;;;;;4.13;2.13;;;11.90;99.30;;;;;;4995562;28;20524;-74
2023/10/16 14:33:36;;;;;;;3.83;2.20;;;11.90;99.50;;;;;;5001184;28;20499;-73
2023/10/16 14:36:04;;;;;;;2.00;1.70;;;11.90;99.20;;;;;;4980309;28;20466;-70
2023/10/16 14:38:30;;;;;;;1.40;1.30;;;11.90;99.10;;;;;;4975012;28;21003;-72
2023/10/16 14:40:59;;;;;;;3.17;2.27;;;11.80;99.50;;;;;;4983387;28;20466;-73
2023/10/16 14:43:25;;;;;;;3.00;2.00;;;11.80;99.50;;;;;;4966772;28;20700;-73
2023/10/16 14:46:00;;;;;;;2.20;2.00;;;11.90;99.50;;;;;;4985764;28;20469;-73
2023/10/16 14:48:26;;;;;;;2.10;1.90;;;11.80;99.40;;;;;;4994890;28;20463;-73
2023/10/16 14:50:52;;;;;;;2.50;2.10;;;11.80;99.60;;;;;;5003086;28;20453;-72
2023/10/16 14:53:19;;;;;;;2.57;1.83;;;11.90;99.50;;;;;;4995136;28;20222;-73
2023/10/16 14:55:49;;;;;;;2.40;1.83;;;11.80;99.60;;;;;;4999540;28;20476;-73
2023/10/16 14:58:15;;;;;;;2.60;1.50;;;11.80;99.60;;;;;;4970784;28;20998;-72
2023/10/16 15:00:50;;;;;;;3.13;1.20;;;11.80;99.30;;;;;;4996183;28;20469;-75
2023/10/16 15:03:17;;;;;;;2.40;1.37;;;11.70;99.40;;;;;;4981551;28;20603;-75
2023/10/16 15:05:45;;;;;;;3.30;2.70;;;11.60;99.20;;;;;;4989366;28;20464;-74
2023/10/16 15:08:12;;;;;;;7.43;2.63;;;11.60;99.40;;;;;;4996534;28;20906;-75
2023/10/16 15:10:45;;;;;;;3.30;1.70;;;11.60;99.50;;;;;;5004260;28;20449;-76
2023/10/16 15:13:14;;;;;;;2.03;1.57;;;11.60;99.40;;;;;;4980544;28;21051;-74